No particular awareness of the weather is required.    There are no Weather-warnings


Meteo18 Weather Cam more information Meteo18 Weather Cam


Thunder radar more information blitzortung!


Rain radar more information rain snow radar


Visit our other weather sites:

Template documentation
and downloads

And another site



Weather Underground History page Text

Daily Summary for February 5, 2017 Units:  Metric    English   Both
« Previous Day
Next Day »
Daily Weekly Monthly Yearly Custom
  High: Low: Average:
Temperature: 10.1 °C 4.7 °C 6.9 °C
Dew Point: 7.2 °C 3.0 °C 5.1 °C
Humidity: 96 % 71 % 89 %
Wind Speed: 25.7 km/h 0.0 km/h 7.1 km/h
Wind Gust: 38.6 km/h - -
Wind:- - SW
Pressure: 1009.7 hPa 997.5 hPa -
Precipitation: 8.4 mm    
Historical Graphs
 
 
Tabular Data for February 5, 2017
Time Temperature Dew Point Pressure Wind Wind Speed Wind Gust Humidity Rainfall Rate (Hourly)
00:02 4.8 °C 3.0 °C 1004.6 hPa SSE 1.6 km/h 4.8 km/h 88 % 0.0 mm
00:07 4.8 °C 3.0 °C 1004.6 hPa SSE 1.6 km/h 4.8 km/h 88 % 0.0 mm
00:12 4.9 °C 3.1 °C 1004.6 hPa Calm   4.8 km/h 88 % 0.0 mm
00:17 4.9 °C 3.2 °C 1004.6 hPa Calm   3.2 km/h 89 % 0.0 mm
00:22 4.9 °C 3.2 °C 1004.6 hPa Calm   3.2 km/h 89 % 0.0 mm
00:27 4.9 °C 3.2 °C 1004.6 hPa Calm   1.6 km/h 89 % 0.3 mm
00:32 4.9 °C 3.2 °C 1004.6 hPa Calm   1.6 km/h 89 % 0.3 mm
00:37 5.0 °C 3.3 °C 1004.6 hPa Calm   1.6 km/h 89 % 0.3 mm
00:42 4.9 °C 3.4 °C 1004.6 hPa Calm   1.6 km/h 90 % 0.3 mm
00:47 4.8 °C 3.5 °C 1004.3 hPa Calm   1.6 km/h 91 % 0.3 mm
00:52 4.8 °C 3.5 °C 1004.3 hPa Calm   1.6 km/h 91 % 0.5 mm
00:57 4.8 °C 3.5 °C 1004.3 hPa South 1.6 km/h 3.2 km/h 91 % 0.5 mm
01:02 4.8 °C 3.5 °C 1003.9 hPa Calm   3.2 km/h 91 % 0.5 mm
01:07 4.8 °C 3.5 °C 1003.9 hPa SSW 1.6 km/h 3.2 km/h 91 % 0.5 mm
01:12 4.8 °C 3.6 °C 1003.9 hPa SSW 1.6 km/h 1.6 km/h 92 % 0.5 mm
01:17 4.9 °C 3.7 °C 1003.9 hPa Calm   1.6 km/h 92 % 0.5 mm
01:22 4.9 °C 3.7 °C 1003.6 hPa Calm   1.6 km/h 92 % 0.5 mm
01:27 5.1 °C 3.9 °C 1003.6 hPa Calm   1.6 km/h 92 % 0.5 mm
01:32 5.1 °C 3.9 °C 1003.6 hPa Calm   1.6 km/h 92 % 0.5 mm
01:37 5.1 °C 3.9 °C 1003.6 hPa South 1.6 km/h 1.6 km/h 92 % 0.5 mm
01:42 5.1 °C 3.9 °C 1003.3 hPa Calm   1.6 km/h 92 % 0.5 mm
01:47 5.2 °C 4.2 °C 1003.3 hPa Calm   1.6 km/h 93 % 0.8 mm
01:52 5.2 °C 4.2 °C 1002.9 hPa Calm   1.6 km/h 93 % 0.8 mm
01:57 5.2 °C 4.2 °C 1002.9 hPa Calm   1.6 km/h 93 % 1.0 mm
02:02 5.2 °C 4.2 °C 1002.9 hPa Calm   1.6 km/h 93 % 1.3 mm
02:07 5.2 °C 4.2 °C 1002.6 hPa Calm   1.6 km/h 93 % 1.3 mm
02:12 5.2 °C 4.3 °C 1002.6 hPa Calm   1.6 km/h 94 % 1.0 mm
02:17 5.2 °C 4.3 °C 1002.6 hPa Calm     94 % 1.3 mm
02:22 5.2 °C 4.3 °C 1002.3 hPa Calm     94 % 1.5 mm
02:27 5.1 °C 4.2 °C 1002.3 hPa SSE 1.6 km/h 1.6 km/h 94 % 1.5 mm
02:32 5.1 °C 4.2 °C 1002.3 hPa NNE 1.6 km/h 3.2 km/h 94 % 1.5 mm
02:37 4.9 °C 4.0 °C 1002.3 hPa NNW 1.6 km/h 3.2 km/h 94 % 1.5 mm
02:42 4.7 °C 3.8 °C 1001.9 hPa Calm   3.2 km/h 94 % 1.5 mm
02:47 4.8 °C 4.1 °C 1001.9 hPa Calm   3.2 km/h 95 % 1.3 mm
02:52 5.0 °C 4.4 °C 1001.9 hPa Calm   1.6 km/h 96 % 1.3 mm
02:57 5.2 °C 4.6 °C 1001.6 hPa Calm   1.6 km/h 96 % 1.3 mm
03:02 5.2 °C 4.6 °C 1001.6 hPa ENE 3.2 km/h 3.2 km/h 96 % 1.0 mm
03:07 5.1 °C 4.4 °C 1001.6 hPa Calm   3.2 km/h 95 % 1.0 mm
03:12 5.2 °C 4.6 °C 1001.6 hPa Calm   3.2 km/h 96 % 0.8 mm
03:17 5.2 °C 4.6 °C 1001.2 hPa Calm   3.2 km/h 96 % 0.8 mm
03:22 5.2 °C 4.6 °C 1001.2 hPa Calm   3.2 km/h 96 % 0.8 mm
03:27 5.3 °C 4.7 °C 1000.9 hPa East 3.2 km/h 3.2 km/h 96 % 0.5 mm
03:32 5.3 °C 4.7 °C 1000.9 hPa East 3.2 km/h 8.0 km/h 96 % 0.5 mm
03:37 5.3 °C 4.7 °C 1000.9 hPa ESE 1.6 km/h 8.0 km/h 96 % 0.5 mm
03:42 5.3 °C 4.7 °C 1000.9 hPa Calm   8.0 km/h 96 % 0.5 mm
03:47 5.3 °C 4.7 °C 1000.6 hPa Calm   6.4 km/h 96 % 0.5 mm
03:52 5.3 °C 4.6 °C 1000.6 hPa Calm   4.8 km/h 95 % 0.3 mm
03:57 5.2 °C 4.5 °C 1000.6 hPa SE 1.6 km/h 4.8 km/h 95 % 0.5 mm
04:02 5.2 °C 4.5 °C 1000.2 hPa SSE 1.6 km/h 4.8 km/h 95 % 0.5 mm
04:07 5.2 °C 4.5 °C 1000.2 hPa ESE 3.2 km/h 6.4 km/h 95 % 0.8 mm
04:12 5.2 °C 4.5 °C 999.9 hPa Calm   6.4 km/h 95 % 1.0 mm
04:17 5.2 °C 4.5 °C 1000.2 hPa Calm   6.4 km/h 95 % 1.0 mm
04:22 5.3 °C 4.7 °C 1000.2 hPa South 1.6 km/h 6.4 km/h 96 % 1.0 mm
04:27 5.3 °C 4.7 °C 999.9 hPa Calm   4.8 km/h 96 % 1.3 mm
04:32 5.4 °C 4.8 °C 999.5 hPa ESE 4.8 km/h 4.8 km/h 96 % 1.5 mm
04:37 5.4 °C 4.8 °C 999.5 hPa Calm   4.8 km/h 96 % 1.8 mm
04:42 5.4 °C 4.8 °C 999.5 hPa Calm   4.8 km/h 96 % 1.8 mm
04:47 5.4 °C 4.8 °C 999.5 hPa SE 4.8 km/h 4.8 km/h 96 % 2.0 mm
04:52 5.4 °C 4.8 °C 999.5 hPa SE 4.8 km/h 9.7 km/h 96 % 2.3 mm
04:57 5.4 °C 4.8 °C 999.2 hPa ESE 1.6 km/h 11.3 km/h 96 % 2.0 mm
05:02 5.3 °C 4.7 °C 999.2 hPa ESE 6.4 km/h 11.3 km/h 96 % 1.5 mm
05:07 5.3 °C 4.7 °C 999.2 hPa ESE 1.6 km/h 11.3 km/h 96 % 1.5 mm
05:12 5.3 °C 4.7 °C 998.9 hPa ESE 1.6 km/h 6.4 km/h 96 % 1.5 mm
05:17 5.3 °C 4.7 °C 998.9 hPa SE 1.6 km/h 6.4 km/h 96 % 1.5 mm
05:22 5.4 °C 4.8 °C 998.5 hPa Calm   6.4 km/h 96 % 1.5 mm
05:32 5.4 °C 4.8 °C 998.5 hPa Calm   6.4 km/h 96 % 1.3 mm
05:37 5.6 °C 5.0 °C 998.5 hPa SE 6.4 km/h 9.7 km/h 96 % 1.3 mm
05:42 5.6 °C 5.0 °C 998.5 hPa SE 3.2 km/h 11.3 km/h 96 % 1.0 mm
05:47 5.7 °C 5.1 °C 998.2 hPa SSE 3.2 km/h 11.3 km/h 96 % 1.0 mm
05:52 5.7 °C 5.1 °C 998.2 hPa South 1.6 km/h 11.3 km/h 96 % 1.0 mm
05:57 5.8 °C 5.2 °C 998.2 hPa SSW 3.2 km/h 9.7 km/h 96 % 1.3 mm
06:02 5.8 °C 5.2 °C 997.9 hPa ESE 8.0 km/h 9.7 km/h 96 % 1.3 mm
06:07 5.8 °C 5.2 °C 997.9 hPa ESE 8.0 km/h 12.9 km/h 96 % 1.3 mm
06:12 5.8 °C 5.2 °C 997.9 hPa SSE 1.6 km/h 12.9 km/h 96 % 1.0 mm
06:17 5.8 °C 5.2 °C 997.9 hPa SSW 3.2 km/h 12.9 km/h 96 % 1.0 mm
06:22 5.8 °C 5.2 °C 997.9 hPa South 1.6 km/h 9.7 km/h 96 % 1.0 mm
06:27 5.8 °C 5.2 °C 997.9 hPa ESE 6.4 km/h 9.7 km/h 96 % 0.8 mm
06:32 5.9 °C 5.3 °C 997.9 hPa SSE 4.8 km/h 11.3 km/h 96 % 0.8 mm
06:37 6.1 °C 5.5 °C 997.9 hPa SSE 8.0 km/h 14.5 km/h 96 % 0.5 mm
06:42 6.1 °C 5.5 °C 997.9 hPa South 6.4 km/h 14.5 km/h 96 % 0.5 mm
06:47 6.2 °C 5.6 °C 997.5 hPa SSW 6.4 km/h 14.5 km/h 96 % 0.5 mm
06:52 6.2 °C 5.6 °C 997.5 hPa SSW 3.2 km/h 14.5 km/h 96 % 0.3 mm
06:57 6.3 °C 5.7 °C 997.5 hPa South 4.8 km/h 14.5 km/h 96 % 0.3 mm
07:07 6.3 °C 5.6 °C 997.5 hPa SE 3.2 km/h 12.9 km/h 95 % 0.3 mm
07:12 6.3 °C 5.6 °C 997.5 hPa SSE 4.8 km/h 12.9 km/h 95 % 0.0 mm
07:17 6.4 °C 5.7 °C 997.5 hPa SSE 3.2 km/h 9.7 km/h 95 % 0.0 mm
07:22 6.5 °C 5.9 °C 997.5 hPa South 3.2 km/h 9.7 km/h 96 % 0.0 mm
07:27 6.7 °C 6.1 °C 997.5 hPa South 4.8 km/h 9.7 km/h 96 % 0.0 mm
07:32 6.9 °C 6.2 °C 997.5 hPa South 9.7 km/h 12.9 km/h 95 % 0.0 mm
07:37 7.3 °C 6.6 °C 997.5 hPa SW 12.9 km/h 14.5 km/h 95 % 0.0 mm
07:42 7.5 °C 6.6 °C 997.5 hPa SSW 16.1 km/h 17.7 km/h 94 % 0.0 mm
07:47 7.6 °C 6.7 °C 997.5 hPa SSW 6.4 km/h 17.7 km/h 94 % 0.0 mm
07:52 7.7 °C 6.6 °C 997.5 hPa SSW 8.0 km/h 17.7 km/h 93 % 0.0 mm
07:57 7.8 °C 6.7 °C 997.5 hPa SSW 12.9 km/h 17.7 km/h 93 % 0.0 mm
08:02 7.9 °C 6.8 °C 997.9 hPa SSW 9.7 km/h 17.7 km/h 93 % 0.0 mm
08:07 8.1 °C 6.9 °C 997.9 hPa SW 17.7 km/h 24.1 km/h 92 % 0.0 mm
08:12 8.0 °C 6.9 °C 997.9 hPa SW 8.0 km/h 24.1 km/h 93 % 0.0 mm
08:17 7.9 °C 6.8 °C 997.9 hPa SSW 8.0 km/h 24.1 km/h 93 % 0.0 mm
08:22 7.8 °C 6.7 °C 997.9 hPa SW 12.9 km/h 22.5 km/h 93 % 0.0 mm
08:27 7.8 °C 6.7 °C 997.9 hPa SSW 9.7 km/h 17.7 km/h 93 % 0.0 mm
08:37 7.8 °C 6.7 °C 997.9 hPa SSW 8.0 km/h 17.7 km/h 93 % 0.0 mm
08:42 7.9 °C 6.8 °C 997.9 hPa SSW 9.7 km/h 19.3 km/h 93 % 0.0 mm
08:47 7.9 °C 6.7 °C 997.9 hPa SSW 14.5 km/h 19.3 km/h 92 % 0.0 mm
08:52 8.1 °C 6.9 °C 998.2 hPa SSW 14.5 km/h 19.3 km/h 92 % 0.0 mm
08:57 8.1 °C 6.9 °C 998.2 hPa SSW 17.7 km/h 20.9 km/h 92 % 0.0 mm
09:02 8.2 °C 7.0 °C 998.5 hPa South 19.3 km/h 29.0 km/h 92 % 0.0 mm
09:07 8.3 °C 6.9 °C 998.5 hPa SW 17.7 km/h 29.0 km/h 91 % 0.0 mm
09:12 8.3 °C 6.9 °C 998.5 hPa SW 20.9 km/h 29.0 km/h 91 % 0.0 mm
09:17 8.4 °C 7.2 °C 998.5 hPa SW 17.7 km/h 32.2 km/h 92 % 0.0 mm
09:22 8.5 °C 7.1 °C 998.5 hPa WSW 12.9 km/h 32.2 km/h 91 % 0.0 mm
09:27 8.6 °C 7.1 °C 998.5 hPa West 16.1 km/h 32.2 km/h 90 % 0.0 mm
09:32 8.6 °C 7.1 °C 998.9 hPa WSW 17.7 km/h 32.2 km/h 90 % 0.0 mm
09:37 8.6 °C 7.1 °C 998.9 hPa WSW 19.3 km/h 30.6 km/h 90 % 0.0 mm
09:42 8.7 °C 7.0 °C 998.9 hPa SW 19.3 km/h 38.6 km/h 89 % 0.3 mm
09:47 8.6 °C 6.9 °C 998.9 hPa WSW 16.1 km/h 38.6 km/h 89 % 0.3 mm
09:52 8.6 °C 6.9 °C 998.9 hPa SW 11.3 km/h 38.6 km/h 89 % 0.3 mm
09:57 8.6 °C 6.9 °C 998.9 hPa WSW 17.7 km/h 32.2 km/h 89 % 0.3 mm
10:02 8.5 °C 6.8 °C 998.9 hPa SSW 12.9 km/h 30.6 km/h 89 % 0.3 mm
10:07 8.4 °C 6.5 °C 998.9 hPa SW 12.9 km/h 30.6 km/h 88 % 0.3 mm
10:12 8.4 °C 6.5 °C 999.2 hPa WSW 12.9 km/h 29.0 km/h 88 % 0.3 mm
10:17 8.4 °C 6.5 °C 999.2 hPa West 11.3 km/h 33.8 km/h 88 % 0.3 mm
10:22 8.3 °C 6.3 °C 999.2 hPa West 20.9 km/h 33.8 km/h 87 % 0.3 mm
10:27 8.4 °C 6.4 °C 999.2 hPa WSW 6.4 km/h 33.8 km/h 87 % 0.3 mm
10:32 8.4 °C 6.4 °C 998.9 hPa West 12.9 km/h 25.7 km/h 87 % 0.3 mm
10:37 8.4 °C 6.5 °C 999.2 hPa SSW 11.3 km/h 25.7 km/h 88 % 0.3 mm
10:42 8.4 °C 6.5 °C 999.5 hPa SW 12.9 km/h 25.7 km/h 88 % 0.0 mm
10:47 8.4 °C 6.5 °C 999.5 hPa WSW 9.7 km/h 27.4 km/h 88 % 0.0 mm
10:52 8.5 °C 6.6 °C 999.5 hPa SSW 1.6 km/h 27.4 km/h 88 % 0.0 mm
10:57 8.5 °C 6.6 °C 999.5 hPa SW 6.4 km/h 27.4 km/h 88 % 0.0 mm
11:02 8.6 °C 6.7 °C 999.5 hPa SW 16.1 km/h 24.1 km/h 88 % 0.0 mm
11:07 8.6 °C 6.7 °C 999.9 hPa South 9.7 km/h 24.1 km/h 88 % 0.0 mm
11:12 8.7 °C 6.7 °C 999.9 hPa WSW 14.5 km/h 24.1 km/h 87 % 0.0 mm
11:17 8.7 °C 6.7 °C 999.9 hPa SW 12.9 km/h 24.1 km/h 87 % 0.0 mm
11:22 8.7 °C 6.7 °C 999.9 hPa SW 11.3 km/h 24.1 km/h 87 % 0.0 mm
11:27 8.7 °C 6.7 °C 999.9 hPa SW 9.7 km/h 24.1 km/h 87 % 0.0 mm
11:32 8.8 °C 6.8 °C 1000.2 hPa SW 8.0 km/h 20.9 km/h 87 % 0.0 mm
11:37 8.8 °C 6.8 °C 1000.2 hPa SSW 9.7 km/h 20.9 km/h 87 % 0.0 mm
11:42 8.8 °C 6.8 °C 1000.2 hPa WSW 11.3 km/h 20.9 km/h 87 % 0.0 mm
11:47 8.8 °C 6.6 °C 999.9 hPa SSW 14.5 km/h 22.5 km/h 86 % 0.0 mm
11:52 8.9 °C 6.5 °C 999.9 hPa SW 11.3 km/h 22.5 km/h 85 % 0.0 mm
11:57 8.9 °C 6.3 °C 999.9 hPa WSW 12.9 km/h 24.1 km/h 84 % 0.0 mm
12:02 8.9 °C 6.3 °C 999.9 hPa SW 9.7 km/h 25.7 km/h 84 % 0.0 mm
12:07 8.9 °C 6.2 °C 999.9 hPa SSW 17.7 km/h 25.7 km/h 83 % 0.0 mm
12:12 8.9 °C 6.3 °C 999.9 hPa SW 16.1 km/h 22.5 km/h 84 % 0.0 mm
12:17 8.9 °C 6.5 °C 999.9 hPa SW 12.9 km/h 24.1 km/h 85 % 0.0 mm
12:22 8.9 °C 6.3 °C 999.9 hPa SSW 8.0 km/h 29.0 km/h 84 % 0.0 mm
12:27 8.9 °C 6.3 °C 999.9 hPa SSW 12.9 km/h 29.0 km/h 84 % 0.0 mm
12:32 8.9 °C 6.3 °C 999.9 hPa SW 8.0 km/h 29.0 km/h 84 % 0.0 mm
12:37 8.9 °C 6.0 °C 999.9 hPa SW 17.7 km/h 24.1 km/h 82 % 0.0 mm
12:42 8.9 °C 6.2 °C 999.9 hPa SW 19.3 km/h 30.6 km/h 83 % 0.0 mm
12:47 8.9 °C 6.0 °C 999.9 hPa SW 19.3 km/h 30.6 km/h 82 % 0.0 mm
12:52 8.9 °C 6.2 °C 999.9 hPa WSW 12.9 km/h 29.0 km/h 83 % 0.0 mm
12:57 9.1 °C 6.4 °C 999.9 hPa SW 14.5 km/h 29.0 km/h 83 % 0.0 mm
13:02 9.3 °C 6.2 °C 999.9 hPa West 14.5 km/h 27.4 km/h 81 % 0.0 mm
13:07 9.4 °C 6.7 °C 999.9 hPa SW 12.9 km/h 25.7 km/h 83 % 0.0 mm
13:12 9.3 °C 6.0 °C 999.9 hPa SSW 12.9 km/h 25.7 km/h 80 % 0.0 mm
13:22 9.3 °C 5.7 °C 999.5 hPa West 16.1 km/h 30.6 km/h 78 % 0.0 mm
13:27 9.2 °C 5.6 °C 999.9 hPa WSW 12.9 km/h 30.6 km/h 78 % 0.0 mm
13:32 9.3 °C 5.7 °C 999.5 hPa WSW 12.9 km/h 32.2 km/h 78 % 0.0 mm
13:37 9.3 °C 5.5 °C 999.5 hPa West 14.5 km/h 32.2 km/h 77 % 0.0 mm
13:42 9.3 °C 5.5 °C 999.5 hPa SSW 11.3 km/h 29.0 km/h 77 % 0.0 mm
13:47 9.5 °C 5.9 °C 999.5 hPa SW 6.4 km/h 29.0 km/h 78 % 0.0 mm
13:52 9.7 °C 5.9 °C 999.5 hPa SW 12.9 km/h 27.4 km/h 77 % 0.0 mm
13:57 9.8 °C 5.6 °C 999.5 hPa SSW 9.7 km/h 27.4 km/h 75 % 0.0 mm
14:02 9.8 °C 5.8 °C 999.5 hPa SW 19.3 km/h 29.0 km/h 76 % 0.0 mm
14:07 9.9 °C 5.9 °C 999.5 hPa West 14.5 km/h 29.0 km/h 76 % 0.0 mm
14:12 10.1 °C 5.9 °C 999.5 hPa SSW 14.5 km/h 27.4 km/h 75 % 0.0 mm
14:17 10.0 °C 5.2 °C 999.5 hPa SW 16.1 km/h 25.7 km/h 72 % 0.0 mm
14:22 9.9 °C 5.1 °C 999.5 hPa SW 16.1 km/h 30.6 km/h 72 % 0.0 mm
14:27 9.8 °C 5.0 °C 999.5 hPa WSW 17.7 km/h 30.6 km/h 72 % 0.0 mm
14:32 9.8 °C 5.0 °C 999.5 hPa SW 16.1 km/h 29.0 km/h 72 % 0.0 mm
14:37 9.6 °C 4.6 °C 999.5 hPa NW 11.3 km/h 29.0 km/h 71 % 0.0 mm
14:42 9.6 °C 4.8 °C 999.9 hPa West 8.0 km/h 29.0 km/h 72 % 0.0 mm
14:47 9.6 °C 5.2 °C 999.9 hPa WSW 11.3 km/h 25.7 km/h 74 % 0.0 mm
14:52 9.6 °C 5.2 °C 999.9 hPa SW 11.3 km/h 20.9 km/h 74 % 0.0 mm
14:57 9.6 °C 5.0 °C 999.9 hPa WSW 8.0 km/h 25.7 km/h 73 % 0.0 mm
15:02 9.6 °C 5.2 °C 999.9 hPa WSW 14.5 km/h 25.7 km/h 74 % 0.0 mm
15:07 9.5 °C 5.3 °C 999.9 hPa SW 6.4 km/h 25.7 km/h 75 % 0.0 mm
15:12 9.5 °C 5.5 °C 999.9 hPa West 4.8 km/h 19.3 km/h 76 % 0.0 mm
15:17 9.5 °C 5.3 °C 999.9 hPa SW 14.5 km/h 17.7 km/h 75 % 0.0 mm
15:22 9.5 °C 4.9 °C 999.9 hPa SW 9.7 km/h 17.7 km/h 73 % 0.0 mm
15:32 9.4 °C 5.0 °C 999.9 hPa SW 8.0 km/h 20.9 km/h 74 % 0.0 mm
15:37 9.4 °C 5.0 °C 999.9 hPa SW 11.3 km/h 19.3 km/h 74 % 0.0 mm
15:42 9.4 °C 5.2 °C 999.9 hPa West 11.3 km/h 19.3 km/h 75 % 0.0 mm
15:47 9.4 °C 5.2 °C 1000.2 hPa SW 3.2 km/h 16.1 km/h 75 % 0.0 mm
15:52 9.4 °C 5.0 °C 1000.2 hPa SW 8.0 km/h 16.1 km/h 74 % 0.0 mm
15:57 9.4 °C 5.4 °C 1000.2 hPa WSW 9.7 km/h 16.1 km/h 76 % 0.0 mm
16:02 9.3 °C 4.9 °C 1000.2 hPa SW 11.3 km/h 17.7 km/h 74 % 0.0 mm
16:07 9.3 °C 5.3 °C 1000.6 hPa SSW 9.7 km/h 20.9 km/h 76 % 0.0 mm
16:12 9.2 °C 5.2 °C 1000.6 hPa SSW 4.8 km/h 20.9 km/h 76 % 0.0 mm
16:17 9.2 °C 5.4 °C 1000.6 hPa SW 8.0 km/h 20.9 km/h 77 % 0.0 mm
16:22 9.2 °C 5.6 °C 1000.6 hPa SSW 8.0 km/h 14.5 km/h 78 % 0.0 mm
16:32 9.2 °C 5.6 °C 1000.9 hPa SSW 9.7 km/h 16.1 km/h 78 % 0.0 mm
16:42 9.0 °C 5.7 °C 1000.9 hPa SSW 4.8 km/h 17.7 km/h 80 % 0.0 mm
16:47 9.0 °C 5.7 °C 1000.9 hPa SSW 8.0 km/h 16.1 km/h 80 % 0.0 mm
16:52 8.9 °C 5.5 °C 1000.9 hPa SSW 3.2 km/h 14.5 km/h 79 % 0.0 mm
16:57 8.9 °C 5.6 °C 1000.9 hPa South 4.8 km/h 9.7 km/h 80 % 0.0 mm
17:02 8.9 °C 5.8 °C 1001.2 hPa SSW 6.4 km/h 9.7 km/h 81 % 0.0 mm
17:07 8.8 °C 5.5 °C 1001.2 hPa SSW 6.4 km/h 9.7 km/h 80 % 0.0 mm
17:12 8.7 °C 5.4 °C 1001.2 hPa SSW 14.5 km/h 14.5 km/h 80 % 0.0 mm
17:17 8.4 °C 5.5 °C 1001.2 hPa South 9.7 km/h 16.1 km/h 82 % 0.0 mm
17:22 8.2 °C 5.3 °C 1001.6 hPa SSW 6.4 km/h 16.1 km/h 82 % 0.0 mm
17:32 7.8 °C 5.3 °C 1001.6 hPa SSE 4.8 km/h 14.5 km/h 84 % 0.0 mm
17:37 7.7 °C 5.2 °C 1001.9 hPa SSW 6.4 km/h 11.3 km/h 84 % 0.0 mm
17:42 7.6 °C 5.1 °C 1001.9 hPa SSW 6.4 km/h 12.9 km/h 84 % 0.0 mm
17:47 7.4 °C 5.2 °C 1002.3 hPa SW 12.9 km/h 16.1 km/h 86 % 0.0 mm
17:52 7.3 °C 4.8 °C 1002.3 hPa WSW 12.9 km/h 16.1 km/h 84 % 0.0 mm
17:57 6.9 °C 4.7 °C 1002.3 hPa WSW 16.1 km/h 20.9 km/h 86 % 0.0 mm
18:02 6.6 °C 4.8 °C 1002.6 hPa WSW 12.9 km/h 20.9 km/h 88 % 0.5 mm
18:07 6.6 °C 4.6 °C 1002.6 hPa SW 6.4 km/h 19.3 km/h 87 % 0.8 mm
18:12 6.5 °C 4.5 °C 1002.9 hPa WSW 4.8 km/h 19.3 km/h 87 % 1.5 mm
18:17 6.4 °C 4.6 °C 1002.9 hPa Calm   16.1 km/h 88 % 1.5 mm
18:22 6.4 °C 4.6 °C 1002.9 hPa Calm   11.3 km/h 88 % 1.5 mm
18:27 6.3 °C 4.6 °C 1002.9 hPa Calm   8.0 km/h 89 % 1.5 mm
18:32 6.2 °C 4.7 °C 1002.9 hPa NNW 3.2 km/h 3.2 km/h 90 % 1.5 mm
18:37 6.2 °C 4.7 °C 1002.9 hPa Calm   3.2 km/h 90 % 1.5 mm
18:42 6.0 °C 4.6 °C 1003.3 hPa NW 1.6 km/h 3.2 km/h 91 % 1.5 mm
18:47 5.9 °C 4.5 °C 1003.3 hPa Calm   4.8 km/h 91 % 1.5 mm
18:52 5.8 °C 4.4 °C 1003.3 hPa Calm   4.8 km/h 91 % 1.5 mm
18:57 5.7 °C 4.3 °C 1003.6 hPa Calm   4.8 km/h 91 % 1.5 mm
19:02 5.6 °C 4.4 °C 1003.6 hPa Calm   1.6 km/h 92 % 1.0 mm
19:07 5.6 °C 4.4 °C 1003.6 hPa North 1.6 km/h 1.6 km/h 92 % 0.5 mm
19:12 5.5 °C 4.3 °C 1003.6 hPa Calm   3.2 km/h 92 % 0.3 mm
19:17 5.4 °C 4.2 °C 1003.9 hPa NNE 1.6 km/h 3.2 km/h 92 % 0.3 mm
19:22 5.3 °C 4.1 °C 1003.9 hPa NE 1.6 km/h 3.2 km/h 92 % 0.0 mm
19:27 5.3 °C 4.4 °C 1003.9 hPa ENE 3.2 km/h 4.8 km/h 94 % 0.0 mm
19:32 5.3 °C 4.3 °C 1003.9 hPa Calm   4.8 km/h 93 % 0.0 mm
19:37 5.2 °C 4.2 °C 1003.9 hPa Calm   4.8 km/h 93 % 0.0 mm
19:42 5.1 °C 4.2 °C 1004.3 hPa Calm   3.2 km/h 94 % 0.0 mm
19:47 5.1 °C 4.2 °C 1004.3 hPa NNW 1.6 km/h 1.6 km/h 94 % 0.0 mm
19:52 5.2 °C 4.3 °C 1004.3 hPa Calm   3.2 km/h 94 % 0.0 mm
19:57 5.3 °C 4.4 °C 1004.6 hPa Calm   3.2 km/h 94 % 0.0 mm
20:02 5.3 °C 4.3 °C 1004.6 hPa Calm   3.2 km/h 93 % 0.0 mm
20:07 5.2 °C 4.2 °C 1004.6 hPa Calm   1.6 km/h 93 % 0.0 mm
20:12 5.2 °C 4.2 °C 1005.0 hPa Calm   1.6 km/h 93 % 0.0 mm
20:17 5.3 °C 4.3 °C 1005.0 hPa Calm   1.6 km/h 93 % 0.0 mm
20:22 5.4 °C 4.2 °C 1005.0 hPa Calm   1.6 km/h 92 % 0.0 mm
20:32 5.2 °C 4.0 °C 1005.3 hPa Calm     92 % 0.0 mm
20:42 4.9 °C 3.9 °C 1005.3 hPa Calm     93 % 0.0 mm
20:47 4.9 °C 3.9 °C 1005.6 hPa Calm     93 % 0.0 mm
20:52 5.1 °C 4.1 °C 1005.6 hPa Calm     93 % 0.0 mm
20:57 5.1 °C 4.1 °C 1005.6 hPa Calm     93 % 0.0 mm
21:02 5.1 °C 3.9 °C 1005.6 hPa Calm     92 % 0.0 mm
21:07 5.1 °C 3.9 °C 1006.0 hPa Calm     92 % 0.0 mm
21:12 4.9 °C 3.9 °C 1006.0 hPa Calm     93 % 0.0 mm
21:17 5.1 °C 4.1 °C 1006.3 hPa Calm     93 % 0.0 mm
21:22 5.2 °C 4.0 °C 1006.3 hPa Calm   1.6 km/h 92 % 0.0 mm
21:27 5.2 °C 3.9 °C 1006.3 hPa Calm   1.6 km/h 91 % 0.0 mm
21:32 5.1 °C 3.8 °C 1006.7 hPa Calm   1.6 km/h 91 % 0.0 mm
21:37 5.0 °C 3.7 °C 1006.7 hPa Calm   1.6 km/h 91 % 0.0 mm
21:42 4.7 °C 3.5 °C 1006.7 hPa West 3.2 km/h 3.2 km/h 92 % 0.0 mm
21:47 4.8 °C 3.6 °C 1007.0 hPa Calm   4.8 km/h 92 % 0.0 mm
21:52 5.1 °C 3.8 °C 1007.0 hPa WNW 6.4 km/h 6.4 km/h 91 % 0.0 mm
21:57 5.3 °C 3.8 °C 1007.0 hPa NW 4.8 km/h 9.7 km/h 90 % 0.0 mm
22:02 5.4 °C 3.7 °C 1007.3 hPa WNW 4.8 km/h 9.7 km/h 89 % 0.0 mm
22:07 5.5 °C 3.8 °C 1007.3 hPa WNW 8.0 km/h 9.7 km/h 89 % 0.0 mm
22:12 5.7 °C 3.9 °C 1007.3 hPa WNW 11.3 km/h 16.1 km/h 88 % 0.0 mm
22:17 5.8 °C 4.0 °C 1007.7 hPa WNW 16.1 km/h 17.7 km/h 88 % 0.3 mm
22:22 6.0 °C 4.2 °C 1007.7 hPa WNW 11.3 km/h 22.5 km/h 88 % 0.3 mm
22:27 6.1 °C 4.3 °C 1007.7 hPa NW 9.7 km/h 25.7 km/h 88 % 0.3 mm
22:32 6.0 °C 4.2 °C 1008.0 hPa NW 12.9 km/h 25.7 km/h 88 % 0.3 mm
22:37 5.9 °C 4.1 °C 1008.0 hPa WNW 17.7 km/h 33.8 km/h 88 % 0.3 mm
22:42 5.8 °C 4.1 °C 1008.4 hPa NW 25.7 km/h 33.8 km/h 89 % 0.3 mm
22:47 5.7 °C 4.0 °C 1008.4 hPa WNW 11.3 km/h 33.8 km/h 89 % 0.3 mm
22:52 5.6 °C 4.1 °C 1008.4 hPa WNW 9.7 km/h 30.6 km/h 90 % 0.3 mm
22:57 5.6 °C 4.1 °C 1008.4 hPa WNW 8.0 km/h 32.2 km/h 90 % 0.3 mm
23:02 5.6 °C 4.1 °C 1008.4 hPa WNW 19.3 km/h 32.2 km/h 90 % 0.3 mm
23:07 5.7 °C 4.2 °C 1008.7 hPa NW 19.3 km/h 32.2 km/h 90 % 0.3 mm
23:12 5.8 °C 4.3 °C 1008.7 hPa West 11.3 km/h 37.0 km/h 90 % 0.0 mm
23:17 5.8 °C 4.3 °C 1009.0 hPa WNW 19.3 km/h 37.0 km/h 90 % 0.0 mm
23:22 5.8 °C 4.3 °C 1009.0 hPa NW 20.9 km/h 37.0 km/h 90 % 0.0 mm
23:27 5.8 °C 4.3 °C 1009.4 hPa WNW 14.5 km/h 32.2 km/h 90 % 0.0 mm
23:32 5.8 °C 4.3 °C 1009.4 hPa WNW 11.3 km/h 29.0 km/h 90 % 0.0 mm
23:37 5.8 °C 4.3 °C 1009.4 hPa WNW 16.1 km/h 27.4 km/h 90 % 0.0 mm
23:42 5.9 °C 4.4 °C 1009.4 hPa NNW 17.7 km/h 27.4 km/h 90 % 0.0 mm
23:47 5.9 °C 4.4 °C 1009.4 hPa WNW 20.9 km/h 32.2 km/h 90 % 0.0 mm
23:52 5.9 °C 4.4 °C 1009.7 hPa WNW 20.9 km/h 32.2 km/h 90 % 0.0 mm
23:57 5.8 °C 4.3 °C 1009.7 hPa WNW 11.3 km/h 32.2 km/h 90 % 0.0 mm
Meteo18
Compliments of Weather Underground - 4 mb

Script developed by  Jim McMurry - jmcmurry@mwt.net Adapted for the template by  Wim van der Kuil - Leuven-Template.eu

You find our weather info also at:

European Weather Network

Weather Underground

Equipment we use:

Weather-station
Davis Vue

Weather-program
Meteohub

Weather-server
Raspberry PI 2 B+

Provider
1 and 1

Davis Vue

Meteohub

Raspberry PI 2 B+

1 and 1